sensor_id;sensor_type;location;lat;lon;timestamp;P1;durP1;ratioP1;P2;durP2;ratioP2
13461;SDS011;6803;45.264;5.468;2022-11-23T00:01:13;21.83;;;8.60;;
13461;SDS011;6803;45.264;5.468;2022-11-23T00:03:46;15.43;;;8.43;;
13461;SDS011;6803;45.264;5.468;2022-11-23T00:06:18;13.23;;;8.13;;
13461;SDS011;6803;45.264;5.468;2022-11-23T00:08:50;9.67;;;6.50;;
13461;SDS011;6803;45.264;5.468;2022-11-23T00:11:22;14.30;;;7.83;;
13461;SDS011;6803;45.264;5.468;2022-11-23T00:13:55;12.93;;;6.97;;
13461;SDS011;6803;45.264;5.468;2022-11-23T00:16:26;12.27;;;5.80;;
13461;SDS011;6803;45.264;5.468;2022-11-23T00:18:59;9.17;;;5.77;;
13461;SDS011;6803;45.264;5.468;2022-11-23T00:21:30;15.20;;;5.50;;
13461;SDS011;6803;45.264;5.468;2022-11-23T00:24:01;11.97;;;6.03;;
13461;SDS011;6803;45.264;5.468;2022-11-23T00:26:33;10.90;;;5.53;;
13461;SDS011;6803;45.264;5.468;2022-11-23T00:29:03;7.97;;;5.50;;
13461;SDS011;6803;45.264;5.468;2022-11-23T00:31:34;9.07;;;5.30;;
13461;SDS011;6803;45.264;5.468;2022-11-23T00:34:05;16.30;;;7.17;;
13461;SDS011;6803;45.264;5.468;2022-11-23T00:36:35;9.43;;;6.00;;
13461;SDS011;6803;45.264;5.468;2022-11-23T00:39:06;10.23;;;5.80;;
13461;SDS011;6803;45.264;5.468;2022-11-23T00:41:36;13.97;;;6.10;;
13461;SDS011;6803;45.264;5.468;2022-11-23T00:44:07;8.70;;;5.70;;
13461;SDS011;6803;45.264;5.468;2022-11-23T00:46:37;9.53;;;5.40;;
13461;SDS011;6803;45.264;5.468;2022-11-23T00:49:08;9.20;;;6.23;;
13461;SDS011;6803;45.264;5.468;2022-11-23T00:51:38;9.90;;;6.33;;
13461;SDS011;6803;45.264;5.468;2022-11-23T00:54:09;11.20;;;5.67;;
13461;SDS011;6803;45.264;5.468;2022-11-23T00:56:40;12.53;;;6.23;;
13461;SDS011;6803;45.264;5.468;2022-11-23T00:59:10;8.80;;;6.33;;
13461;SDS011;6803;45.264;5.468;2022-11-23T01:01:41;12.17;;;7.17;;
13461;SDS011;6803;45.264;5.468;2022-11-23T01:04:12;14.97;;;6.93;;
13461;SDS011;6803;45.264;5.468;2022-11-23T01:06:43;13.87;;;7.40;;
13461;SDS011;6803;45.264;5.468;2022-11-23T01:09:14;15.00;;;7.57;;
13461;SDS011;6803;45.264;5.468;2022-11-23T01:11:46;8.90;;;6.10;;
13461;SDS011;6803;45.264;5.468;2022-11-23T01:14:17;10.07;;;6.00;;
13461;SDS011;6803;45.264;5.468;2022-11-23T01:16:48;9.97;;;6.07;;
13461;SDS011;6803;45.264;5.468;2022-11-23T01:19:19;11.13;;;5.97;;
13461;SDS011;6803;45.264;5.468;2022-11-23T01:21:49;10.13;;;6.00;;
13461;SDS011;6803;45.264;5.468;2022-11-23T01:24:21;11.47;;;5.53;;
13461;SDS011;6803;45.264;5.468;2022-11-23T01:26:52;12.70;;;5.90;;
13461;SDS011;6803;45.264;5.468;2022-11-23T01:29:23;21.87;;;7.93;;
13461;SDS011;6803;45.264;5.468;2022-11-23T01:31:54;13.73;;;8.63;;
13461;SDS011;6803;45.264;5.468;2022-11-23T01:34:24;17.30;;;9.67;;
13461;SDS011;6803;45.264;5.468;2022-11-23T01:36:55;16.73;;;9.67;;
13461;SDS011;6803;45.264;5.468;2022-11-23T01:39:26;14.97;;;10.17;;
13461;SDS011;6803;45.264;5.468;2022-11-23T01:41:57;17.57;;;10.97;;
13461;SDS011;6803;45.264;5.468;2022-11-23T01:44:28;14.50;;;8.77;;
13461;SDS011;6803;45.264;5.468;2022-11-23T01:47:00;14.10;;;8.03;;
13461;SDS011;6803;45.264;5.468;2022-11-23T01:49:34;13.47;;;8.10;;
13461;SDS011;6803;45.264;5.468;2022-11-23T01:52:07;11.33;;;7.57;;
13461;SDS011;6803;45.264;5.468;2022-11-23T01:57:31;15.53;;;8.97;;
13461;SDS011;6803;45.264;5.468;2022-11-23T02:00:05;15.10;;;9.10;;
13461;SDS011;6803;45.264;5.468;2022-11-23T02:02:37;14.90;;;9.27;;
13461;SDS011;6803;45.264;5.468;2022-11-23T02:15:56;28.77;;;10.17;;
13461;SDS011;6803;45.264;5.468;2022-11-23T02:18:28;17.23;;;10.03;;
13461;SDS011;6803;45.264;5.468;2022-11-23T02:21:00;16.90;;;10.57;;
13461;SDS011;6803;45.264;5.468;2022-11-23T02:23:35;21.97;;;11.10;;
13461;SDS011;6803;45.264;5.468;2022-11-23T02:26:07;19.23;;;11.40;;
13461;SDS011;6803;45.264;5.468;2022-11-23T02:28:40;22.07;;;11.83;;
13461;SDS011;6803;45.264;5.468;2022-11-23T02:31:14;18.87;;;10.20;;
13461;SDS011;6803;45.264;5.468;2022-11-23T02:33:44;16.67;;;10.40;;
13461;SDS011;6803;45.264;5.468;2022-11-23T02:36:25;16.27;;;11.00;;
13461;SDS011;6803;45.264;5.468;2022-11-23T02:39:03;19.27;;;9.90;;
13461;SDS011;6803;45.264;5.468;2022-11-23T02:41:40;19.57;;;11.67;;
13461;SDS011;6803;45.264;5.468;2022-11-23T02:44:24;17.70;;;10.90;;
13461;SDS011;6803;45.264;5.468;2022-11-23T02:46:59;18.03;;;10.77;;
13461;SDS011;6803;45.264;5.468;2022-11-23T02:49:30;19.13;;;11.17;;
13461;SDS011;6803;45.264;5.468;2022-11-23T02:52:01;20.90;;;10.87;;
13461;SDS011;6803;45.264;5.468;2022-11-23T02:54:33;16.77;;;9.83;;
13461;SDS011;6803;45.264;5.468;2022-11-23T02:57:05;20.17;;;11.00;;
13461;SDS011;6803;45.264;5.468;2022-11-23T02:59:36;17.47;;;11.43;;
13461;SDS011;6803;45.264;5.468;2022-11-23T03:02:07;21.97;;;11.93;;
13461;SDS011;6803;45.264;5.468;2022-11-23T03:04:37;21.87;;;10.67;;
13461;SDS011;6803;45.264;5.468;2022-11-23T03:07:08;21.53;;;11.53;;
13461;SDS011;6803;45.264;5.468;2022-11-23T03:09:39;16.97;;;9.93;;
13461;SDS011;6803;45.264;5.468;2022-11-23T03:12:09;18.33;;;9.80;;
13461;SDS011;6803;45.264;5.468;2022-11-23T03:14:40;16.77;;;9.33;;
13461;SDS011;6803;45.264;5.468;2022-11-23T03:17:10;12.43;;;8.87;;
13461;SDS011;6803;45.264;5.468;2022-11-23T03:19:41;19.63;;;9.97;;
13461;SDS011;6803;45.264;5.468;2022-11-23T03:22:11;22.87;;;9.97;;
13461;SDS011;6803;45.264;5.468;2022-11-23T03:24:42;13.13;;;8.23;;
13461;SDS011;6803;45.264;5.468;2022-11-23T03:27:12;26.07;;;10.33;;
13461;SDS011;6803;45.264;5.468;2022-11-23T03:29:43;27.20;;;9.77;;
13461;SDS011;6803;45.264;5.468;2022-11-23T03:32:14;21.40;;;9.40;;
13461;SDS011;6803;45.264;5.468;2022-11-23T03:34:44;14.20;;;9.50;;
13461;SDS011;6803;45.264;5.468;2022-11-23T03:37:15;21.10;;;10.80;;
13461;SDS011;6803;45.264;5.468;2022-11-23T03:39:46;18.17;;;10.03;;
13461;SDS011;6803;45.264;5.468;2022-11-23T03:42:16;19.03;;;9.37;;
13461;SDS011;6803;45.264;5.468;2022-11-23T03:44:47;14.07;;;8.20;;
13461;SDS011;6803;45.264;5.468;2022-11-23T03:47:17;15.93;;;9.07;;
13461;SDS011;6803;45.264;5.468;2022-11-23T03:49:48;15.50;;;8.73;;
13461;SDS011;6803;45.264;5.468;2022-11-23T03:52:18;17.57;;;10.07;;
13461;SDS011;6803;45.264;5.468;2022-11-23T03:54:49;13.23;;;8.87;;
13461;SDS011;6803;45.264;5.468;2022-11-23T03:57:20;15.67;;;9.47;;
13461;SDS011;6803;45.264;5.468;2022-11-23T03:59:50;13.70;;;9.53;;
13461;SDS011;6803;45.264;5.468;2022-11-23T04:02:21;18.17;;;9.00;;
13461;SDS011;6803;45.264;5.468;2022-11-23T04:04:52;15.63;;;8.90;;
13461;SDS011;6803;45.264;5.468;2022-11-23T04:07:22;12.83;;;7.97;;
13461;SDS011;6803;45.264;5.468;2022-11-23T04:09:53;11.87;;;8.20;;
13461;SDS011;6803;45.264;5.468;2022-11-23T04:12:24;16.67;;;8.23;;
13461;SDS011;6803;45.264;5.468;2022-11-23T04:14:54;12.77;;;8.30;;
13461;SDS011;6803;45.264;5.468;2022-11-23T04:17:25;14.30;;;7.23;;
13461;SDS011;6803;45.264;5.468;2022-11-23T04:19:56;12.40;;;8.30;;
13461;SDS011;6803;45.264;5.468;2022-11-23T04:22:26;12.70;;;8.37;;
13461;SDS011;6803;45.264;5.468;2022-11-23T04:24:57;12.37;;;8.40;;
13461;SDS011;6803;45.264;5.468;2022-11-23T04:27:28;13.53;;;8.40;;
13461;SDS011;6803;45.264;5.468;2022-11-23T04:29:58;11.97;;;7.73;;
13461;SDS011;6803;45.264;5.468;2022-11-23T04:32:29;14.20;;;8.00;;
13461;SDS011;6803;45.264;5.468;2022-11-23T04:35:00;10.07;;;6.97;;
13461;SDS011;6803;45.264;5.468;2022-11-23T04:37:30;12.70;;;7.87;;
13461;SDS011;6803;45.264;5.468;2022-11-23T04:40:01;16.17;;;7.83;;
13461;SDS011;6803;45.264;5.468;2022-11-23T04:42:32;14.57;;;8.10;;
13461;SDS011;6803;45.264;5.468;2022-11-23T04:45:04;12.07;;;8.30;;
13461;SDS011;6803;45.264;5.468;2022-11-23T04:47:35;15.93;;;8.40;;
13461;SDS011;6803;45.264;5.468;2022-11-23T04:50:07;16.40;;;9.33;;
13461;SDS011;6803;45.264;5.468;2022-11-23T04:52:37;12.37;;;7.33;;
13461;SDS011;6803;45.264;5.468;2022-11-23T04:55:08;12.13;;;7.80;;
13461;SDS011;6803;45.264;5.468;2022-11-23T04:57:39;12.23;;;7.30;;
13461;SDS011;6803;45.264;5.468;2022-11-23T05:00:11;11.97;;;7.17;;
13461;SDS011;6803;45.264;5.468;2022-11-23T05:02:44;9.83;;;5.37;;
13461;SDS011;6803;45.264;5.468;2022-11-23T05:05:14;11.03;;;6.57;;
13461;SDS011;6803;45.264;5.468;2022-11-23T05:07:45;17.83;;;9.60;;
13461;SDS011;6803;45.264;5.468;2022-11-23T05:10:16;12.43;;;7.87;;
13461;SDS011;6803;45.264;5.468;2022-11-23T05:12:47;12.97;;;7.27;;
13461;SDS011;6803;45.264;5.468;2022-11-23T05:17:59;12.00;;;6.83;;
13461;SDS011;6803;45.264;5.468;2022-11-23T05:20:31;11.60;;;7.13;;
13461;SDS011;6803;45.264;5.468;2022-11-23T05:23:02;12.47;;;9.13;;
13461;SDS011;6803;45.264;5.468;2022-11-23T05:25:33;16.67;;;8.27;;
13461;SDS011;6803;45.264;5.468;2022-11-23T05:28:04;11.83;;;8.17;;
13461;SDS011;6803;45.264;5.468;2022-11-23T05:30:36;12.07;;;6.80;;
13461;SDS011;6803;45.264;5.468;2022-11-23T05:33:07;11.37;;;6.73;;
13461;SDS011;6803;45.264;5.468;2022-11-23T05:35:40;12.80;;;7.30;;
13461;SDS011;6803;45.264;5.468;2022-11-23T05:38:11;15.40;;;8.27;;
13461;SDS011;6803;45.264;5.468;2022-11-23T05:40:43;16.03;;;8.37;;
13461;SDS011;6803;45.264;5.468;2022-11-23T05:43:14;16.90;;;7.97;;
13461;SDS011;6803;45.264;5.468;2022-11-23T05:45:45;12.33;;;7.83;;
13461;SDS011;6803;45.264;5.468;2022-11-23T05:48:15;13.90;;;7.93;;
13461;SDS011;6803;45.264;5.468;2022-11-23T05:50:48;11.43;;;6.93;;
13461;SDS011;6803;45.264;5.468;2022-11-23T05:53:18;12.20;;;7.20;;
13461;SDS011;6803;45.264;5.468;2022-11-23T05:55:49;11.43;;;7.70;;
13461;SDS011;6803;45.264;5.468;2022-11-23T05:58:20;15.23;;;7.37;;
13461;SDS011;6803;45.264;5.468;2022-11-23T06:00:50;13.07;;;7.30;;
13461;SDS011;6803;45.264;5.468;2022-11-23T06:03:22;12.67;;;7.60;;
13461;SDS011;6803;45.264;5.468;2022-11-23T06:05:53;13.37;;;8.57;;
13461;SDS011;6803;45.264;5.468;2022-11-23T06:08:24;14.83;;;8.47;;
13461;SDS011;6803;45.264;5.468;2022-11-23T06:10:54;17.60;;;7.93;;
13461;SDS011;6803;45.264;5.468;2022-11-23T06:13:26;13.80;;;8.40;;
13461;SDS011;6803;45.264;5.468;2022-11-23T06:15:57;13.50;;;7.90;;
13461;SDS011;6803;45.264;5.468;2022-11-23T06:18:28;13.60;;;8.40;;
13461;SDS011;6803;45.264;5.468;2022-11-23T06:20:59;12.60;;;7.63;;
13461;SDS011;6803;45.264;5.468;2022-11-23T06:23:30;13.17;;;7.30;;
13461;SDS011;6803;45.264;5.468;2022-11-23T06:26:01;11.37;;;6.70;;
13461;SDS011;6803;45.264;5.468;2022-11-23T06:28:32;16.10;;;9.10;;
13461;SDS011;6803;45.264;5.468;2022-11-23T06:31:04;16.33;;;8.93;;
13461;SDS011;6803;45.264;5.468;2022-11-23T06:33:35;15.50;;;9.37;;
13461;SDS011;6803;45.264;5.468;2022-11-23T06:36:08;13.30;;;9.03;;
13461;SDS011;6803;45.264;5.468;2022-11-23T06:38:39;14.60;;;9.23;;
13461;SDS011;6803;45.264;5.468;2022-11-23T06:41:10;17.63;;;10.13;;
13461;SDS011;6803;45.264;5.468;2022-11-23T06:43:41;16.30;;;9.30;;
13461;SDS011;6803;45.264;5.468;2022-11-23T06:46:11;25.00;;;8.77;;
13461;SDS011;6803;45.264;5.468;2022-11-23T06:48:44;11.40;;;8.13;;
13461;SDS011;6803;45.264;5.468;2022-11-23T06:51:15;12.77;;;8.33;;
13461;SDS011;6803;45.264;5.468;2022-11-23T06:53:45;12.53;;;8.50;;
13461;SDS011;6803;45.264;5.468;2022-11-23T06:56:16;14.10;;;9.03;;
13461;SDS011;6803;45.264;5.468;2022-11-23T06:58:47;12.87;;;8.20;;
13461;SDS011;6803;45.264;5.468;2022-11-23T07:01:17;15.77;;;9.83;;
13461;SDS011;6803;45.264;5.468;2022-11-23T07:03:48;14.17;;;8.93;;
13461;SDS011;6803;45.264;5.468;2022-11-23T07:06:19;14.17;;;9.33;;
13461;SDS011;6803;45.264;5.468;2022-11-23T07:08:49;15.70;;;9.33;;
13461;SDS011;6803;45.264;5.468;2022-11-23T07:11:21;19.17;;;10.40;;
13461;SDS011;6803;45.264;5.468;2022-11-23T07:13:52;16.17;;;10.30;;
13461;SDS011;6803;45.264;5.468;2022-11-23T07:16:23;19.57;;;10.73;;
13461;SDS011;6803;45.264;5.468;2022-11-23T07:18:54;19.50;;;9.53;;
13461;SDS011;6803;45.264;5.468;2022-11-23T07:21:25;11.23;;;8.77;;
13461;SDS011;6803;45.264;5.468;2022-11-23T07:23:56;15.03;;;10.03;;
13461;SDS011;6803;45.264;5.468;2022-11-23T07:26:26;16.73;;;9.63;;
13461;SDS011;6803;45.264;5.468;2022-11-23T07:28:57;21.23;;;10.87;;
13461;SDS011;6803;45.264;5.468;2022-11-23T07:31:27;14.77;;;8.87;;
13461;SDS011;6803;45.264;5.468;2022-11-23T07:33:58;13.27;;;8.23;;
13461;SDS011;6803;45.264;5.468;2022-11-23T07:36:29;16.07;;;7.87;;
13461;SDS011;6803;45.264;5.468;2022-11-23T07:38:59;10.77;;;7.73;;
13461;SDS011;6803;45.264;5.468;2022-11-23T07:41:30;16.17;;;7.63;;
13461;SDS011;6803;45.264;5.468;2022-11-23T07:44:01;12.50;;;7.30;;
13461;SDS011;6803;45.264;5.468;2022-11-23T07:46:32;12.97;;;6.00;;
13461;SDS011;6803;45.264;5.468;2022-11-23T07:49:03;9.57;;;5.37;;
13461;SDS011;6803;45.264;5.468;2022-11-23T07:51:34;9.53;;;4.90;;
13461;SDS011;6803;45.264;5.468;2022-11-23T07:54:06;8.43;;;5.57;;
13461;SDS011;6803;45.264;5.468;2022-11-23T07:56:37;9.33;;;5.57;;
13461;SDS011;6803;45.264;5.468;2022-11-23T07:59:07;6.70;;;4.93;;
13461;SDS011;6803;45.264;5.468;2022-11-23T08:01:38;12.43;;;5.60;;
13461;SDS011;6803;45.264;5.468;2022-11-23T08:04:09;8.80;;;5.00;;
13461;SDS011;6803;45.264;5.468;2022-11-23T08:06:40;14.13;;;5.17;;
13461;SDS011;6803;45.264;5.468;2022-11-23T08:09:10;8.87;;;6.00;;
13461;SDS011;6803;45.264;5.468;2022-11-23T08:11:42;7.97;;;5.83;;
13461;SDS011;6803;45.264;5.468;2022-11-23T08:14:12;10.40;;;5.77;;
13461;SDS011;6803;45.264;5.468;2022-11-23T08:16:46;7.93;;;5.53;;
13461;SDS011;6803;45.264;5.468;2022-11-23T08:19:17;10.83;;;6.30;;
13461;SDS011;6803;45.264;5.468;2022-11-23T08:21:48;10.23;;;5.93;;
13461;SDS011;6803;45.264;5.468;2022-11-23T08:24:19;11.60;;;6.53;;
13461;SDS011;6803;45.264;5.468;2022-11-23T08:26:50;11.53;;;6.40;;
13461;SDS011;6803;45.264;5.468;2022-11-23T08:29:20;12.30;;;5.83;;
13461;SDS011;6803;45.264;5.468;2022-11-23T08:31:51;10.17;;;6.73;;
13461;SDS011;6803;45.264;5.468;2022-11-23T08:34:22;9.60;;;6.73;;
13461;SDS011;6803;45.264;5.468;2022-11-23T08:36:53;12.67;;;7.07;;
13461;SDS011;6803;45.264;5.468;2022-11-23T08:39:23;11.37;;;7.37;;
13461;SDS011;6803;45.264;5.468;2022-11-23T08:41:54;11.57;;;7.50;;
13461;SDS011;6803;45.264;5.468;2022-11-23T08:44:25;9.33;;;6.00;;
13461;SDS011;6803;45.264;5.468;2022-11-23T08:46:56;11.37;;;6.63;;
13461;SDS011;6803;45.264;5.468;2022-11-23T08:49:28;10.13;;;6.13;;
13461;SDS011;6803;45.264;5.468;2022-11-23T08:51:59;11.70;;;5.80;;
13461;SDS011;6803;45.264;5.468;2022-11-23T08:54:31;10.43;;;5.63;;
13461;SDS011;6803;45.264;5.468;2022-11-23T08:57:01;10.80;;;6.40;;
13461;SDS011;6803;45.264;5.468;2022-11-23T08:59:32;11.33;;;6.00;;
13461;SDS011;6803;45.264;5.468;2022-11-23T09:02:03;9.67;;;6.23;;
13461;SDS011;6803;45.264;5.468;2022-11-23T09:04:34;11.43;;;6.27;;
13461;SDS011;6803;45.264;5.468;2022-11-23T09:07:04;8.80;;;5.53;;
13461;SDS011;6803;45.264;5.468;2022-11-23T09:09:35;8.83;;;6.40;;
13461;SDS011;6803;45.264;5.468;2022-11-23T09:12:06;7.83;;;5.13;;
13461;SDS011;6803;45.264;5.468;2022-11-23T09:14:37;7.37;;;4.73;;
13461;SDS011;6803;45.264;5.468;2022-11-23T09:17:08;6.80;;;4.60;;
13461;SDS011;6803;45.264;5.468;2022-11-23T09:19:39;7.60;;;4.37;;
13461;SDS011;6803;45.264;5.468;2022-11-23T09:22:09;9.97;;;3.90;;
13461;SDS011;6803;45.264;5.468;2022-11-23T09:24:40;8.87;;;3.80;;
13461;SDS011;6803;45.264;5.468;2022-11-23T09:27:11;16.27;;;4.43;;
13461;SDS011;6803;45.264;5.468;2022-11-23T09:29:42;4.70;;;3.83;;
13461;SDS011;6803;45.264;5.468;2022-11-23T09:32:12;6.30;;;3.93;;
13461;SDS011;6803;45.264;5.468;2022-11-23T09:34:43;7.00;;;3.87;;
13461;SDS011;6803;45.264;5.468;2022-11-23T09:37:14;4.97;;;3.73;;
13461;SDS011;6803;45.264;5.468;2022-11-23T09:39:45;6.33;;;4.50;;
13461;SDS011;6803;45.264;5.468;2022-11-23T09:42:26;9.47;;;5.77;;
13461;SDS011;6803;45.264;5.468;2022-11-23T09:45:15;10.93;;;5.20;;
13461;SDS011;6803;45.264;5.468;2022-11-23T09:47:57;6.73;;;4.90;;
13461;SDS011;6803;45.264;5.468;2022-11-23T09:50:45;10.03;;;5.20;;
13461;SDS011;6803;45.264;5.468;2022-11-23T09:53:19;6.97;;;5.47;;
13461;SDS011;6803;45.264;5.468;2022-11-23T09:55:52;6.87;;;4.27;;
13461;SDS011;6803;45.264;5.468;2022-11-23T09:58:26;8.50;;;4.77;;
13461;SDS011;6803;45.264;5.468;2022-11-23T10:01:00;6.27;;;4.23;;
13461;SDS011;6803;45.264;5.468;2022-11-23T10:03:35;8.77;;;4.47;;
13461;SDS011;6803;45.264;5.468;2022-11-23T10:06:13;7.93;;;4.87;;
13461;SDS011;6803;45.264;5.468;2022-11-23T10:08:51;8.60;;;4.80;;
13461;SDS011;6803;45.264;5.468;2022-11-23T10:11:47;8.30;;;5.17;;
13461;SDS011;6803;45.264;5.468;2022-11-23T10:14:29;8.00;;;4.50;;
13461;SDS011;6803;45.264;5.468;2022-11-23T10:17:08;9.30;;;4.90;;
13461;SDS011;6803;45.264;5.468;2022-11-23T10:19:56;13.47;;;5.37;;
13461;SDS011;6803;45.264;5.468;2022-11-23T10:22:33;11.87;;;6.53;;
13461;SDS011;6803;45.264;5.468;2022-11-23T10:25:08;16.00;;;6.93;;
13461;SDS011;6803;45.264;5.468;2022-11-23T10:27:42;11.50;;;6.10;;
13461;SDS011;6803;45.264;5.468;2022-11-23T10:30:16;10.03;;;6.07;;
13461;SDS011;6803;45.264;5.468;2022-11-23T10:32:49;9.57;;;5.70;;
13461;SDS011;6803;45.264;5.468;2022-11-23T10:35:24;11.90;;;6.63;;
13461;SDS011;6803;45.264;5.468;2022-11-23T10:38:00;10.13;;;7.80;;
13461;SDS011;6803;45.264;5.468;2022-11-23T10:40:42;13.30;;;7.87;;
13461;SDS011;6803;45.264;5.468;2022-11-23T10:43:15;10.17;;;6.47;;
13461;SDS011;6803;45.264;5.468;2022-11-23T10:45:48;12.10;;;7.50;;
13461;SDS011;6803;45.264;5.468;2022-11-23T10:48:32;8.30;;;5.80;;
13461;SDS011;6803;45.264;5.468;2022-11-23T10:51:18;10.53;;;5.33;;
13461;SDS011;6803;45.264;5.468;2022-11-23T10:53:51;12.40;;;6.27;;
13461;SDS011;6803;45.264;5.468;2022-11-23T10:56:26;9.23;;;5.40;;
13461;SDS011;6803;45.264;5.468;2022-11-23T10:58:57;9.47;;;5.97;;
13461;SDS011;6803;45.264;5.468;2022-11-23T11:01:28;9.90;;;4.70;;
13461;SDS011;6803;45.264;5.468;2022-11-23T11:04:01;7.27;;;5.70;;
13461;SDS011;6803;45.264;5.468;2022-11-23T11:06:32;11.47;;;6.40;;
13461;SDS011;6803;45.264;5.468;2022-11-23T11:09:03;11.13;;;7.40;;
13461;SDS011;6803;45.264;5.468;2022-11-23T11:11:44;12.50;;;7.30;;
13461;SDS011;6803;45.264;5.468;2022-11-23T11:14:18;13.23;;;7.60;;
13461;SDS011;6803;45.264;5.468;2022-11-23T11:16:51;9.57;;;7.27;;
13461;SDS011;6803;45.264;5.468;2022-11-23T11:19:26;13.37;;;6.93;;
13461;SDS011;6803;45.264;5.468;2022-11-23T11:21:58;10.40;;;7.50;;
13461;SDS011;6803;45.264;5.468;2022-11-23T11:24:32;14.07;;;7.37;;
13461;SDS011;6803;45.264;5.468;2022-11-23T11:27:05;10.63;;;6.43;;
13461;SDS011;6803;45.264;5.468;2022-11-23T11:29:46;11.20;;;6.83;;
13461;SDS011;6803;45.264;5.468;2022-11-23T11:32:19;11.10;;;6.57;;
13461;SDS011;6803;45.264;5.468;2022-11-23T11:34:54;14.43;;;6.13;;
13461;SDS011;6803;45.264;5.468;2022-11-23T11:37:29;10.63;;;6.10;;
13461;SDS011;6803;45.264;5.468;2022-11-23T11:40:05;10.30;;;5.97;;
13461;SDS011;6803;45.264;5.468;2022-11-23T11:42:39;11.63;;;5.90;;
13461;SDS011;6803;45.264;5.468;2022-11-23T11:45:16;12.40;;;5.43;;
13461;SDS011;6803;45.264;5.468;2022-11-23T11:47:47;8.87;;;4.93;;
13461;SDS011;6803;45.264;5.468;2022-11-23T11:50:21;6.90;;;4.47;;
13461;SDS011;6803;45.264;5.468;2022-11-23T11:52:59;9.10;;;5.17;;
13461;SDS011;6803;45.264;5.468;2022-11-23T11:55:39;6.10;;;4.90;;
13461;SDS011;6803;45.264;5.468;2022-11-23T11:58:14;10.43;;;5.17;;
13461;SDS011;6803;45.264;5.468;2022-11-23T12:00:46;10.30;;;5.70;;
13461;SDS011;6803;45.264;5.468;2022-11-23T12:03:21;12.10;;;5.63;;
13461;SDS011;6803;45.264;5.468;2022-11-23T12:05:54;10.37;;;6.13;;
13461;SDS011;6803;45.264;5.468;2022-11-23T12:08:29;11.43;;;6.20;;
13461;SDS011;6803;45.264;5.468;2022-11-23T12:11:03;9.60;;;5.87;;
13461;SDS011;6803;45.264;5.468;2022-11-23T12:13:35;13.07;;;5.30;;
13461;SDS011;6803;45.264;5.468;2022-11-23T12:16:09;9.17;;;4.60;;
13461;SDS011;6803;45.264;5.468;2022-11-23T12:18:52;10.00;;;5.50;;
13461;SDS011;6803;45.264;5.468;2022-11-23T12:21:39;11.80;;;4.67;;
13461;SDS011;6803;45.264;5.468;2022-11-23T12:27:26;10.53;;;4.70;;
13461;SDS011;6803;45.264;5.468;2022-11-23T12:30:03;12.30;;;4.97;;
13461;SDS011;6803;45.264;5.468;2022-11-23T12:32:43;5.13;;;3.87;;
13461;SDS011;6803;45.264;5.468;2022-11-23T12:35:30;7.90;;;3.70;;
13461;SDS011;6803;45.264;5.468;2022-11-23T12:38:33;5.97;;;3.40;;
13461;SDS011;6803;45.264;5.468;2022-11-23T12:44:20;13.67;;;5.30;;
13461;SDS011;6803;45.264;5.468;2022-11-23T12:46:53;15.20;;;4.77;;
13461;SDS011;6803;45.264;5.468;2022-11-23T12:49:35;11.70;;;5.77;;
13461;SDS011;6803;45.264;5.468;2022-11-23T12:52:06;9.27;;;4.57;;
13461;SDS011;6803;45.264;5.468;2022-11-23T12:54:44;12.60;;;5.70;;
13461;SDS011;6803;45.264;5.468;2022-11-23T12:57:19;7.93;;;3.53;;
13461;SDS011;6803;45.264;5.468;2022-11-23T12:59:54;5.90;;;3.40;;
13461;SDS011;6803;45.264;5.468;2022-11-23T13:02:33;8.40;;;3.30;;
13461;SDS011;6803;45.264;5.468;2022-11-23T13:05:35;5.13;;;3.37;;
13461;SDS011;6803;45.264;5.468;2022-11-23T13:08:39;5.30;;;3.23;;
13461;SDS011;6803;45.264;5.468;2022-11-23T13:14:22;5.90;;;3.30;;
13461;SDS011;6803;45.264;5.468;2022-11-23T13:17:06;9.70;;;3.73;;
13461;SDS011;6803;45.264;5.468;2022-11-23T13:20:04;11.87;;;4.50;;
13461;SDS011;6803;45.264;5.468;2022-11-23T13:22:54;6.10;;;4.13;;
13461;SDS011;6803;45.264;5.468;2022-11-23T13:25:27;10.07;;;4.00;;
13461;SDS011;6803;45.264;5.468;2022-11-23T13:28:00;7.37;;;3.47;;
13461;SDS011;6803;45.264;5.468;2022-11-23T13:30:33;7.57;;;3.33;;
13461;SDS011;6803;45.264;5.468;2022-11-23T13:33:27;3.67;;;2.17;;
13461;SDS011;6803;45.264;5.468;2022-11-23T13:36:03;6.67;;;2.97;;
13461;SDS011;6803;45.264;5.468;2022-11-23T13:38:38;3.80;;;2.60;;
13461;SDS011;6803;45.264;5.468;2022-11-23T13:44:20;4.47;;;2.80;;
13461;SDS011;6803;45.264;5.468;2022-11-23T13:46:57;3.50;;;2.63;;
13461;SDS011;6803;45.264;5.468;2022-11-23T13:49:40;4.73;;;2.60;;
13461;SDS011;6803;45.264;5.468;2022-11-23T13:52:25;7.40;;;3.00;;
13461;SDS011;6803;45.264;5.468;2022-11-23T13:55:03;4.70;;;3.63;;
13461;SDS011;6803;45.264;5.468;2022-11-23T13:57:37;8.03;;;4.30;;
13461;SDS011;6803;45.264;5.468;2022-11-23T14:09:33;9.20;;;5.40;;
13461;SDS011;6803;45.264;5.468;2022-11-23T14:12:11;8.13;;;5.13;;
13461;SDS011;6803;45.264;5.468;2022-11-23T14:14:54;11.93;;;6.07;;
13461;SDS011;6803;45.264;5.468;2022-11-23T14:20:37;12.33;;;5.40;;
13461;SDS011;6803;45.264;5.468;2022-11-23T14:23:19;8.37;;;5.10;;
13461;SDS011;6803;45.264;5.468;2022-11-23T14:26:09;8.63;;;5.57;;
13461;SDS011;6803;45.264;5.468;2022-11-23T14:28:49;10.47;;;6.97;;
13461;SDS011;6803;45.264;5.468;2022-11-23T14:31:25;11.40;;;7.20;;
13461;SDS011;6803;45.264;5.468;2022-11-23T14:34:00;12.63;;;6.07;;
13461;SDS011;6803;45.264;5.468;2022-11-23T14:36:37;11.57;;;5.80;;
13461;SDS011;6803;45.264;5.468;2022-11-23T14:39:19;13.10;;;6.37;;
13461;SDS011;6803;45.264;5.468;2022-11-23T14:42:20;8.60;;;6.33;;
13461;SDS011;6803;45.264;5.468;2022-11-23T14:44:53;11.13;;;6.43;;
13461;SDS011;6803;45.264;5.468;2022-11-23T14:47:26;10.77;;;6.30;;
13461;SDS011;6803;45.264;5.468;2022-11-23T14:49:58;8.77;;;5.60;;
13461;SDS011;6803;45.264;5.468;2022-11-23T14:52:30;12.90;;;6.20;;
13461;SDS011;6803;45.264;5.468;2022-11-23T14:55:03;10.50;;;6.50;;
13461;SDS011;6803;45.264;5.468;2022-11-23T14:57:36;10.10;;;6.07;;
13461;SDS011;6803;45.264;5.468;2022-11-23T15:00:19;11.10;;;5.77;;
13461;SDS011;6803;45.264;5.468;2022-11-23T15:02:53;5.67;;;4.30;;
13461;SDS011;6803;45.264;5.468;2022-11-23T15:05:27;4.60;;;2.87;;
13461;SDS011;6803;45.264;5.468;2022-11-23T15:08:01;5.57;;;2.53;;
13461;SDS011;6803;45.264;5.468;2022-11-23T15:10:39;5.90;;;2.37;;
13461;SDS011;6803;45.264;5.468;2022-11-23T15:13:17;4.67;;;2.47;;
13461;SDS011;6803;45.264;5.468;2022-11-23T15:15:51;6.47;;;3.77;;
13461;SDS011;6803;45.264;5.468;2022-11-23T15:18:30;10.27;;;5.00;;
13461;SDS011;6803;45.264;5.468;2022-11-23T15:21:03;12.27;;;5.00;;
13461;SDS011;6803;45.264;5.468;2022-11-23T15:23:37;9.03;;;4.10;;
13461;SDS011;6803;45.264;5.468;2022-11-23T15:26:17;7.03;;;4.13;;
13461;SDS011;6803;45.264;5.468;2022-11-23T15:28:50;6.77;;;4.40;;
13461;SDS011;6803;45.264;5.468;2022-11-23T15:31:26;62.63;;;7.03;;
13461;SDS011;6803;45.264;5.468;2022-11-23T15:33:59;5.67;;;4.70;;
13461;SDS011;6803;45.264;5.468;2022-11-23T15:36:32;9.23;;;4.50;;
13461;SDS011;6803;45.264;5.468;2022-11-23T15:39:05;7.40;;;3.53;;
13461;SDS011;6803;45.264;5.468;2022-11-23T15:41:37;7.23;;;4.80;;
13461;SDS011;6803;45.264;5.468;2022-11-23T15:44:14;10.90;;;4.50;;
13461;SDS011;6803;45.264;5.468;2022-11-23T15:46:47;4.90;;;3.37;;
13461;SDS011;6803;45.264;5.468;2022-11-23T15:49:21;5.70;;;3.80;;
13461;SDS011;6803;45.264;5.468;2022-11-23T15:51:52;6.13;;;3.87;;
13461;SDS011;6803;45.264;5.468;2022-11-23T15:54:30;6.93;;;3.30;;
13461;SDS011;6803;45.264;5.468;2022-11-23T15:57:11;8.50;;;5.17;;
13461;SDS011;6803;45.264;5.468;2022-11-23T15:59:44;8.53;;;4.40;;
13461;SDS011;6803;45.264;5.468;2022-11-23T16:02:19;7.87;;;3.70;;
13461;SDS011;6803;45.264;5.468;2022-11-23T16:05:03;4.10;;;2.50;;
13461;SDS011;6803;45.264;5.468;2022-11-23T16:07:47;3.90;;;3.20;;
13461;SDS011;6803;45.264;5.468;2022-11-23T16:10:22;3.93;;;2.40;;